sensor_id;sensor_type;location;lat;lon;timestamp;temperature;humidity
48416;DHT22;34227;51.840;4.146;2023-07-31T00:01:24;19.30;93.60
48416;DHT22;34227;51.840;4.146;2023-07-31T00:03:50;19.30;93.80
48416;DHT22;34227;51.840;4.146;2023-07-31T00:06:15;19.30;93.80
48416;DHT22;34227;51.840;4.146;2023-07-31T00:08:41;19.30;94.00
48416;DHT22;34227;51.840;4.146;2023-07-31T00:11:06;19.30;93.90
48416;DHT22;34227;51.840;4.146;2023-07-31T00:13:32;19.30;93.80
48416;DHT22;34227;51.840;4.146;2023-07-31T00:15:58;19.30;93.80
48416;DHT22;34227;51.840;4.146;2023-07-31T00:18:24;19.30;93.90
48416;DHT22;34227;51.840;4.146;2023-07-31T00:20:50;19.30;93.90
48416;DHT22;34227;51.840;4.146;2023-07-31T00:23:16;19.30;94.00
48416;DHT22;34227;51.840;4.146;2023-07-31T00:25:41;19.30;94.10
48416;DHT22;34227;51.840;4.146;2023-07-31T00:28:07;19.30;94.20
48416;DHT22;34227;51.840;4.146;2023-07-31T00:30:32;19.30;94.30
48416;DHT22;34227;51.840;4.146;2023-07-31T00:32:58;19.20;94.20
48416;DHT22;34227;51.840;4.146;2023-07-31T00:35:26;19.30;94.20
48416;DHT22;34227;51.840;4.146;2023-07-31T00:37:52;19.20;94.10
48416;DHT22;34227;51.840;4.146;2023-07-31T00:40:18;19.20;94.40
48416;DHT22;34227;51.840;4.146;2023-07-31T00:42:43;19.20;94.20
48416;DHT22;34227;51.840;4.146;2023-07-31T00:45:09;19.20;94.10
48416;DHT22;34227;51.840;4.146;2023-07-31T00:47:34;19.20;94.10
48416;DHT22;34227;51.840;4.146;2023-07-31T00:50:00;19.20;94.20
48416;DHT22;34227;51.840;4.146;2023-07-31T00:52:25;19.20;94.20
48416;DHT22;34227;51.840;4.146;2023-07-31T00:54:51;19.10;94.20
48416;DHT22;34227;51.840;4.146;2023-07-31T00:57:17;19.10;94.20
48416;DHT22;34227;51.840;4.146;2023-07-31T00:59:42;19.20;94.30
48416;DHT22;34227;51.840;4.146;2023-07-31T01:02:08;19.10;94.20
48416;DHT22;34227;51.840;4.146;2023-07-31T01:04:33;19.10;94.20
48416;DHT22;34227;51.840;4.146;2023-07-31T01:07:09;19.10;94.40
48416;DHT22;34227;51.840;4.146;2023-07-31T01:12:05;19.00;94.40
48416;DHT22;34227;51.840;4.146;2023-07-31T01:14:31;19.10;94.40
48416;DHT22;34227;51.840;4.146;2023-07-31T01:16:56;19.10;94.50
48416;DHT22;34227;51.840;4.146;2023-07-31T01:19:23;19.10;94.30
48416;DHT22;34227;51.840;4.146;2023-07-31T01:24:40;19.10;94.50
48416;DHT22;34227;51.840;4.146;2023-07-31T01:27:12;19.00;94.40
48416;DHT22;34227;51.840;4.146;2023-07-31T01:32:11;19.00;94.60
48416;DHT22;34227;51.840;4.146;2023-07-31T01:34:37;19.00;94.60
48416;DHT22;34227;51.840;4.146;2023-07-31T01:37:03;19.00;94.80
48416;DHT22;34227;51.840;4.146;2023-07-31T01:39:28;18.90;94.60
48416;DHT22;34227;51.840;4.146;2023-07-31T01:41:54;18.90;94.80
48416;DHT22;34227;51.840;4.146;2023-07-31T01:44:19;18.90;94.80
48416;DHT22;34227;51.840;4.146;2023-07-31T01:46:45;18.90;94.80
48416;DHT22;34227;51.840;4.146;2023-07-31T01:49:10;18.90;94.80
48416;DHT22;34227;51.840;4.146;2023-07-31T01:51:36;18.90;94.90
48416;DHT22;34227;51.840;4.146;2023-07-31T01:54:02;18.90;95.10
48416;DHT22;34227;51.840;4.146;2023-07-31T01:56:27;18.90;95.00
48416;DHT22;34227;51.840;4.146;2023-07-31T01:58:56;18.80;94.90
48416;DHT22;34227;51.840;4.146;2023-07-31T02:01:22;18.80;95.00
48416;DHT22;34227;51.840;4.146;2023-07-31T02:03:47;18.80;95.00
48416;DHT22;34227;51.840;4.146;2023-07-31T02:06:13;18.80;94.90
48416;DHT22;34227;51.840;4.146;2023-07-31T02:08:38;18.80;95.00
48416;DHT22;34227;51.840;4.146;2023-07-31T02:11:04;18.80;95.20
48416;DHT22;34227;51.840;4.146;2023-07-31T02:13:31;18.80;94.90
48416;DHT22;34227;51.840;4.146;2023-07-31T02:15:56;18.80;94.90
48416;DHT22;34227;51.840;4.146;2023-07-31T02:18:22;18.80;94.90
48416;DHT22;34227;51.840;4.146;2023-07-31T02:20:51;18.70;95.00
48416;DHT22;34227;51.840;4.146;2023-07-31T02:23:17;18.70;95.10
48416;DHT22;34227;51.840;4.146;2023-07-31T02:25:43;18.70;95.00
48416;DHT22;34227;51.840;4.146;2023-07-31T02:28:08;18.70;95.00
48416;DHT22;34227;51.840;4.146;2023-07-31T02:30:34;18.70;95.00
48416;DHT22;34227;51.840;4.146;2023-07-31T02:33:00;18.70;95.00
48416;DHT22;34227;51.840;4.146;2023-07-31T02:35:25;18.70;95.00
48416;DHT22;34227;51.840;4.146;2023-07-31T02:37:51;18.60;94.90
48416;DHT22;34227;51.840;4.146;2023-07-31T02:40:16;18.60;95.00
48416;DHT22;34227;51.840;4.146;2023-07-31T02:42:42;18.60;95.00
48416;DHT22;34227;51.840;4.146;2023-07-31T02:45:07;18.60;95.10
48416;DHT22;34227;51.840;4.146;2023-07-31T02:47:33;18.60;95.10
48416;DHT22;34227;51.840;4.146;2023-07-31T02:49:59;18.60;95.20
48416;DHT22;34227;51.840;4.146;2023-07-31T02:52:25;18.60;95.30
48416;DHT22;34227;51.840;4.146;2023-07-31T02:54:50;18.60;95.30
48416;DHT22;34227;51.840;4.146;2023-07-31T02:57:16;18.60;95.30
48416;DHT22;34227;51.840;4.146;2023-07-31T02:59:42;18.60;95.30
48416;DHT22;34227;51.840;4.146;2023-07-31T03:02:07;18.50;95.30
48416;DHT22;34227;51.840;4.146;2023-07-31T03:04:33;18.50;95.40
48416;DHT22;34227;51.840;4.146;2023-07-31T03:06:58;18.50;95.30
48416;DHT22;34227;51.840;4.146;2023-07-31T03:09:24;18.50;95.20
48416;DHT22;34227;51.840;4.146;2023-07-31T03:11:49;18.50;95.20
48416;DHT22;34227;51.840;4.146;2023-07-31T03:14:18;18.50;95.30
48416;DHT22;34227;51.840;4.146;2023-07-31T03:16:43;18.50;95.40
48416;DHT22;34227;51.840;4.146;2023-07-31T03:19:09;18.50;95.60
48416;DHT22;34227;51.840;4.146;2023-07-31T03:21:34;18.50;95.40
48416;DHT22;34227;51.840;4.146;2023-07-31T03:24:00;18.50;95.60
48416;DHT22;34227;51.840;4.146;2023-07-31T03:26:26;18.50;95.70
48416;DHT22;34227;51.840;4.146;2023-07-31T03:28:51;18.50;95.70
48416;DHT22;34227;51.840;4.146;2023-07-31T03:31:17;18.40;95.60
48416;DHT22;34227;51.840;4.146;2023-07-31T03:33:42;18.50;95.60
48416;DHT22;34227;51.840;4.146;2023-07-31T03:36:08;18.40;95.80
48416;DHT22;34227;51.840;4.146;2023-07-31T03:38:34;18.40;95.70
48416;DHT22;34227;51.840;4.146;2023-07-31T03:41:02;18.40;95.60
48416;DHT22;34227;51.840;4.146;2023-07-31T03:43:28;18.40;95.70
48416;DHT22;34227;51.840;4.146;2023-07-31T03:45:54;18.40;95.70
48416;DHT22;34227;51.840;4.146;2023-07-31T03:48:19;18.40;95.70
48416;DHT22;34227;51.840;4.146;2023-07-31T03:50:45;18.40;95.70
48416;DHT22;34227;51.840;4.146;2023-07-31T03:53:11;18.40;95.70
48416;DHT22;34227;51.840;4.146;2023-07-31T03:55:37;18.40;95.80
48416;DHT22;34227;51.840;4.146;2023-07-31T03:58:02;18.40;95.70
48416;DHT22;34227;51.840;4.146;2023-07-31T04:00:28;18.30;95.90
48416;DHT22;34227;51.840;4.146;2023-07-31T04:02:56;18.30;95.80
48416;DHT22;34227;51.840;4.146;2023-07-31T04:05:22;18.30;95.90
48416;DHT22;34227;51.840;4.146;2023-07-31T04:07:50;18.30;95.80
48416;DHT22;34227;51.840;4.146;2023-07-31T04:10:16;18.30;95.90
48416;DHT22;34227;51.840;4.146;2023-07-31T04:12:41;18.30;95.80
48416;DHT22;34227;51.840;4.146;2023-07-31T04:15:07;18.30;95.80
48416;DHT22;34227;51.840;4.146;2023-07-31T04:17:32;18.30;95.90
48416;DHT22;34227;51.840;4.146;2023-07-31T04:19:58;18.20;95.90
48416;DHT22;34227;51.840;4.146;2023-07-31T04:22:24;18.20;95.80
48416;DHT22;34227;51.840;4.146;2023-07-31T04:24:49;18.20;95.70
48416;DHT22;34227;51.840;4.146;2023-07-31T04:27:17;18.20;95.60
48416;DHT22;34227;51.840;4.146;2023-07-31T04:29:43;18.20;95.70
48416;DHT22;34227;51.840;4.146;2023-07-31T04:32:11;18.20;95.80
48416;DHT22;34227;51.840;4.146;2023-07-31T04:34:36;18.10;96.00
48416;DHT22;34227;51.840;4.146;2023-07-31T04:37:02;18.10;96.00
48416;DHT22;34227;51.840;4.146;2023-07-31T04:39:28;18.10;95.80
48416;DHT22;34227;51.840;4.146;2023-07-31T04:41:53;18.10;95.90
48416;DHT22;34227;51.840;4.146;2023-07-31T04:44:19;18.10;96.10
48416;DHT22;34227;51.840;4.146;2023-07-31T04:46:45;18.10;96.00
48416;DHT22;34227;51.840;4.146;2023-07-31T04:49:10;18.00;96.00
48416;DHT22;34227;51.840;4.146;2023-07-31T04:51:36;18.00;96.00
48416;DHT22;34227;51.840;4.146;2023-07-31T04:54:01;18.00;96.20
48416;DHT22;34227;51.840;4.146;2023-07-31T04:56:27;18.00;96.20
48416;DHT22;34227;51.840;4.146;2023-07-31T04:58:52;18.00;96.20
48416;DHT22;34227;51.840;4.146;2023-07-31T05:01:18;18.00;96.20
48416;DHT22;34227;51.840;4.146;2023-07-31T05:03:43;18.00;96.10
48416;DHT22;34227;51.840;4.146;2023-07-31T05:06:09;18.00;96.20
48416;DHT22;34227;51.840;4.146;2023-07-31T05:08:34;18.00;96.10
48416;DHT22;34227;51.840;4.146;2023-07-31T05:11:00;18.00;96.30
48416;DHT22;34227;51.840;4.146;2023-07-31T05:13:26;18.00;96.20
48416;DHT22;34227;51.840;4.146;2023-07-31T05:15:51;18.00;96.20
48416;DHT22;34227;51.840;4.146;2023-07-31T05:18:18;17.90;96.30
48416;DHT22;34227;51.840;4.146;2023-07-31T05:20:43;17.90;96.30
48416;DHT22;34227;51.840;4.146;2023-07-31T05:23:09;17.90;96.30
48416;DHT22;34227;51.840;4.146;2023-07-31T05:25:34;18.00;96.40
48416;DHT22;34227;51.840;4.146;2023-07-31T05:28:00;17.90;96.40
48416;DHT22;34227;51.840;4.146;2023-07-31T05:30:25;17.90;96.40
48416;DHT22;34227;51.840;4.146;2023-07-31T05:32:51;17.90;96.50
48416;DHT22;34227;51.840;4.146;2023-07-31T05:35:20;17.90;96.50
48416;DHT22;34227;51.840;4.146;2023-07-31T05:37:46;17.90;96.60
48416;DHT22;34227;51.840;4.146;2023-07-31T05:40:11;18.00;96.50
48416;DHT22;34227;51.840;4.146;2023-07-31T05:42:37;17.90;96.70
48416;DHT22;34227;51.840;4.146;2023-07-31T05:45:04;17.90;96.70
48416;DHT22;34227;51.840;4.146;2023-07-31T05:47:30;17.90;96.80
48416;DHT22;34227;51.840;4.146;2023-07-31T05:49:56;17.90;97.10
48416;DHT22;34227;51.840;4.146;2023-07-31T05:52:21;17.90;96.90
48416;DHT22;34227;51.840;4.146;2023-07-31T05:54:47;17.90;96.90
48416;DHT22;34227;51.840;4.146;2023-07-31T05:57:12;17.90;96.90
48416;DHT22;34227;51.840;4.146;2023-07-31T05:59:38;17.90;97.10
48416;DHT22;34227;51.840;4.146;2023-07-31T06:02:03;17.90;97.00
48416;DHT22;34227;51.840;4.146;2023-07-31T06:04:29;17.90;97.00
48416;DHT22;34227;51.840;4.146;2023-07-31T06:06:56;18.00;97.10
48416;DHT22;34227;51.840;4.146;2023-07-31T06:09:21;18.00;97.00
48416;DHT22;34227;51.840;4.146;2023-07-31T06:11:47;18.00;97.00
48416;DHT22;34227;51.840;4.146;2023-07-31T06:14:13;17.90;96.90
48416;DHT22;34227;51.840;4.146;2023-07-31T06:16:38;18.00;97.10
48416;DHT22;34227;51.840;4.146;2023-07-31T06:19:04;18.00;97.10
48416;DHT22;34227;51.840;4.146;2023-07-31T06:21:30;17.90;97.00
48416;DHT22;34227;51.840;4.146;2023-07-31T06:23:56;18.00;97.20
48416;DHT22;34227;51.840;4.146;2023-07-31T06:26:21;18.00;97.20
48416;DHT22;34227;51.840;4.146;2023-07-31T06:28:47;18.00;97.30
48416;DHT22;34227;51.840;4.146;2023-07-31T06:31:12;18.00;97.20
48416;DHT22;34227;51.840;4.146;2023-07-31T06:33:38;18.00;97.20
48416;DHT22;34227;51.840;4.146;2023-07-31T06:36:04;18.00;97.20
48416;DHT22;34227;51.840;4.146;2023-07-31T06:38:29;18.00;97.20
48416;DHT22;34227;51.840;4.146;2023-07-31T06:40:55;18.00;97.40
48416;DHT22;34227;51.840;4.146;2023-07-31T06:43:20;18.00;97.50
48416;DHT22;34227;51.840;4.146;2023-07-31T06:45:46;18.00;97.30
48416;DHT22;34227;51.840;4.146;2023-07-31T06:48:13;18.00;97.30
48416;DHT22;34227;51.840;4.146;2023-07-31T06:50:39;18.00;97.60
48416;DHT22;34227;51.840;4.146;2023-07-31T06:53:07;18.10;97.50
48416;DHT22;34227;51.840;4.146;2023-07-31T06:55:33;18.10;97.50
48416;DHT22;34227;51.840;4.146;2023-07-31T06:57:59;18.10;97.90
48416;DHT22;34227;51.840;4.146;2023-07-31T07:00:24;18.10;97.70
48416;DHT22;34227;51.840;4.146;2023-07-31T07:02:50;18.10;97.40
48416;DHT22;34227;51.840;4.146;2023-07-31T07:05:16;18.10;97.90
48416;DHT22;34227;51.840;4.146;2023-07-31T07:07:41;18.10;98.00
48416;DHT22;34227;51.840;4.146;2023-07-31T07:10:07;18.10;98.00
48416;DHT22;34227;51.840;4.146;2023-07-31T07:12:33;18.10;97.70
48416;DHT22;34227;51.840;4.146;2023-07-31T07:14:59;18.10;97.80
48416;DHT22;34227;51.840;4.146;2023-07-31T07:17:24;18.10;97.70
48416;DHT22;34227;51.840;4.146;2023-07-31T07:19:50;18.20;97.50
48416;DHT22;34227;51.840;4.146;2023-07-31T07:22:16;18.10;97.60
48416;DHT22;34227;51.840;4.146;2023-07-31T07:24:41;18.20;97.50
48416;DHT22;34227;51.840;4.146;2023-07-31T07:27:07;18.20;97.50
48416;DHT22;34227;51.840;4.146;2023-07-31T07:29:37;18.20;97.50
48416;DHT22;34227;51.840;4.146;2023-07-31T07:32:03;18.20;97.60
48416;DHT22;34227;51.840;4.146;2023-07-31T07:34:28;18.20;97.40
48416;DHT22;34227;51.840;4.146;2023-07-31T07:36:54;18.20;98.10
48416;DHT22;34227;51.840;4.146;2023-07-31T07:39:20;18.20;98.10
48416;DHT22;34227;51.840;4.146;2023-07-31T07:41:45;18.20;98.10
48416;DHT22;34227;51.840;4.146;2023-07-31T07:44:11;18.20;97.80
48416;DHT22;34227;51.840;4.146;2023-07-31T07:46:37;18.30;98.10
48416;DHT22;34227;51.840;4.146;2023-07-31T07:49:02;18.20;97.90
48416;DHT22;34227;51.840;4.146;2023-07-31T07:51:28;18.30;97.90
48416;DHT22;34227;51.840;4.146;2023-07-31T07:53:56;18.30;97.90
48416;DHT22;34227;51.840;4.146;2023-07-31T07:56:21;18.30;97.90
48416;DHT22;34227;51.840;4.146;2023-07-31T07:58:50;18.30;97.80
48416;DHT22;34227;51.840;4.146;2023-07-31T08:01:16;18.30;97.70
48416;DHT22;34227;51.840;4.146;2023-07-31T08:03:41;18.30;98.30
48416;DHT22;34227;51.840;4.146;2023-07-31T08:06:07;18.30;97.80
48416;DHT22;34227;51.840;4.146;2023-07-31T08:08:34;18.30;98.20
48416;DHT22;34227;51.840;4.146;2023-07-31T08:11:00;18.30;98.00
48416;DHT22;34227;51.840;4.146;2023-07-31T08:13:26;18.30;98.30
48416;DHT22;34227;51.840;4.146;2023-07-31T08:15:51;18.30;97.90
48416;DHT22;34227;51.840;4.146;2023-07-31T08:18:17;18.30;98.00
48416;DHT22;34227;51.840;4.146;2023-07-31T08:20:42;18.40;97.80
48416;DHT22;34227;51.840;4.146;2023-07-31T08:23:08;18.40;98.00
48416;DHT22;34227;51.840;4.146;2023-07-31T08:25:35;18.40;98.10
48416;DHT22;34227;51.840;4.146;2023-07-31T08:28:01;18.40;98.00
48416;DHT22;34227;51.840;4.146;2023-07-31T08:30:26;18.40;97.90
48416;DHT22;34227;51.840;4.146;2023-07-31T08:32:52;18.40;98.20
48416;DHT22;34227;51.840;4.146;2023-07-31T08:35:17;18.40;97.90
48416;DHT22;34227;51.840;4.146;2023-07-31T08:37:43;18.50;98.20
48416;DHT22;34227;51.840;4.146;2023-07-31T08:40:09;18.50;98.60
48416;DHT22;34227;51.840;4.146;2023-07-31T08:42:42;18.50;98.20
48416;DHT22;34227;51.840;4.146;2023-07-31T08:45:08;18.40;98.20
48416;DHT22;34227;51.840;4.146;2023-07-31T08:47:34;18.50;98.60
48416;DHT22;34227;51.840;4.146;2023-07-31T08:50:00;18.50;98.50
48416;DHT22;34227;51.840;4.146;2023-07-31T08:52:27;18.50;98.40
48416;DHT22;34227;51.840;4.146;2023-07-31T08:54:52;18.50;98.50
48416;DHT22;34227;51.840;4.146;2023-07-31T08:57:18;18.60;98.40
48416;DHT22;34227;51.840;4.146;2023-07-31T08:59:43;18.60;98.40
48416;DHT22;34227;51.840;4.146;2023-07-31T09:02:09;18.60;98.20
48416;DHT22;34227;51.840;4.146;2023-07-31T09:04:35;18.60;98.30
48416;DHT22;34227;51.840;4.146;2023-07-31T09:07:01;18.70;98.60
48416;DHT22;34227;51.840;4.146;2023-07-31T09:09:28;18.70;98.60
48416;DHT22;34227;51.840;4.146;2023-07-31T09:11:54;18.70;98.50
48416;DHT22;34227;51.840;4.146;2023-07-31T09:14:20;18.80;98.70
48416;DHT22;34227;51.840;4.146;2023-07-31T09:16:55;18.80;98.90
48416;DHT22;34227;51.840;4.146;2023-07-31T09:19:25;18.90;98.80
48416;DHT22;34227;51.840;4.146;2023-07-31T09:21:51;18.90;98.70
48416;DHT22;34227;51.840;4.146;2023-07-31T09:24:26;19.00;98.50
48416;DHT22;34227;51.840;4.146;2023-07-31T09:26:53;19.00;98.50
48416;DHT22;34227;51.840;4.146;2023-07-31T09:29:19;19.00;97.90
48416;DHT22;34227;51.840;4.146;2023-07-31T09:31:45;19.10;98.10
48416;DHT22;34227;51.840;4.146;2023-07-31T09:34:10;19.10;98.50
48416;DHT22;34227;51.840;4.146;2023-07-31T09:36:43;19.10;98.30
48416;DHT22;34227;51.840;4.146;2023-07-31T09:39:09;19.10;98.00
48416;DHT22;34227;51.840;4.146;2023-07-31T09:41:38;19.10;97.90
48416;DHT22;34227;51.840;4.146;2023-07-31T09:44:04;19.20;98.30
48416;DHT22;34227;51.840;4.146;2023-07-31T09:46:30;19.20;98.10
48416;DHT22;34227;51.840;4.146;2023-07-31T09:51:34;19.20;97.90
48416;DHT22;34227;51.840;4.146;2023-07-31T09:54:24;19.20;97.80
48416;DHT22;34227;51.840;4.146;2023-07-31T09:56:49;19.20;97.80
48416;DHT22;34227;51.840;4.146;2023-07-31T09:59:15;19.20;97.80
48416;DHT22;34227;51.840;4.146;2023-07-31T10:01:41;19.20;97.80
48416;DHT22;34227;51.840;4.146;2023-07-31T10:04:08;19.20;97.80
48416;DHT22;34227;51.840;4.146;2023-07-31T10:06:34;19.30;98.10
48416;DHT22;34227;51.840;4.146;2023-07-31T10:09:00;19.40;98.40
48416;DHT22;34227;51.840;4.146;2023-07-31T10:11:26;19.40;98.40
48416;DHT22;34227;51.840;4.146;2023-07-31T10:13:53;19.40;98.40
48416;DHT22;34227;51.840;4.146;2023-07-31T10:16:19;19.40;98.30
48416;DHT22;34227;51.840;4.146;2023-07-31T10:18:45;19.50;98.30
48416;DHT22;34227;51.840;4.146;2023-07-31T10:21:11;19.50;98.50
48416;DHT22;34227;51.840;4.146;2023-07-31T10:23:37;19.50;98.50
48416;DHT22;34227;51.840;4.146;2023-07-31T10:26:04;19.60;98.70
48416;DHT22;34227;51.840;4.146;2023-07-31T10:28:32;19.60;98.70
48416;DHT22;34227;51.840;4.146;2023-07-31T10:30:57;19.70;98.70
48416;DHT22;34227;51.840;4.146;2023-07-31T10:33:24;19.70;98.70
48416;DHT22;34227;51.840;4.146;2023-07-31T10:35:50;19.70;98.60
48416;DHT22;34227;51.840;4.146;2023-07-31T10:38:18;19.80;98.70
48416;DHT22;34227;51.840;4.146;2023-07-31T10:40:44;19.80;98.80
48416;DHT22;34227;51.840;4.146;2023-07-31T10:43:15;19.80;98.50
48416;DHT22;34227;51.840;4.146;2023-07-31T10:45:52;19.80;98.60
48416;DHT22;34227;51.840;4.146;2023-07-31T10:48:21;19.90;98.60
48416;DHT22;34227;51.840;4.146;2023-07-31T10:50:48;19.90;98.60
48416;DHT22;34227;51.840;4.146;2023-07-31T10:55:49;19.90;98.50
48416;DHT22;34227;51.840;4.146;2023-07-31T10:58:18;20.00;98.50
48416;DHT22;34227;51.840;4.146;2023-07-31T11:00:44;19.90;98.50
48416;DHT22;34227;51.840;4.146;2023-07-31T11:03:14;20.00;98.80
48416;DHT22;34227;51.840;4.146;2023-07-31T11:05:46;20.00;98.40
48416;DHT22;34227;51.840;4.146;2023-07-31T11:08:12;20.00;98.70
48416;DHT22;34227;51.840;4.146;2023-07-31T11:10:38;20.10;98.50
48416;DHT22;34227;51.840;4.146;2023-07-31T11:13:04;20.10;98.50
48416;DHT22;34227;51.840;4.146;2023-07-31T11:15:30;20.10;98.40
48416;DHT22;34227;51.840;4.146;2023-07-31T11:17:55;20.20;98.40
48416;DHT22;34227;51.840;4.146;2023-07-31T11:20:26;20.20;98.40
48416;DHT22;34227;51.840;4.146;2023-07-31T11:22:52;20.20;98.50
48416;DHT22;34227;51.840;4.146;2023-07-31T11:25:17;20.20;98.40
48416;DHT22;34227;51.840;4.146;2023-07-31T11:27:43;20.20;98.60
48416;DHT22;34227;51.840;4.146;2023-07-31T11:30:09;20.20;98.40
48416;DHT22;34227;51.840;4.146;2023-07-31T11:32:38;20.30;98.50
48416;DHT22;34227;51.840;4.146;2023-07-31T11:35:04;20.30;98.40
48416;DHT22;34227;51.840;4.146;2023-07-31T11:37:41;20.40;98.50
48416;DHT22;34227;51.840;4.146;2023-07-31T11:40:07;20.40;98.60
48416;DHT22;34227;51.840;4.146;2023-07-31T11:42:33;20.40;98.60
48416;DHT22;34227;51.840;4.146;2023-07-31T11:45:01;20.50;98.50
48416;DHT22;34227;51.840;4.146;2023-07-31T11:47:27;20.50;98.50
48416;DHT22;34227;51.840;4.146;2023-07-31T11:49:52;20.50;98.60
48416;DHT22;34227;51.840;4.146;2023-07-31T11:52:18;20.50;98.60
48416;DHT22;34227;51.840;4.146;2023-07-31T11:54:45;20.60;98.60
48416;DHT22;34227;51.840;4.146;2023-07-31T11:57:12;20.60;98.60
48416;DHT22;34227;51.840;4.146;2023-07-31T11:59:38;20.60;98.30
48416;DHT22;34227;51.840;4.146;2023-07-31T12:02:04;20.60;98.40
48416;DHT22;34227;51.840;4.146;2023-07-31T12:04:30;20.60;98.40
48416;DHT22;34227;51.840;4.146;2023-07-31T12:06:55;20.60;98.20
48416;DHT22;34227;51.840;4.146;2023-07-31T12:09:21;20.60;98.30
48416;DHT22;34227;51.840;4.146;2023-07-31T12:11:47;20.70;98.30
48416;DHT22;34227;51.840;4.146;2023-07-31T12:16:47;20.70;98.40
48416;DHT22;34227;51.840;4.146;2023-07-31T12:19:13;20.80;98.50
48416;DHT22;34227;51.840;4.146;2023-07-31T12:21:38;20.80;98.60
48416;DHT22;34227;51.840;4.146;2023-07-31T12:24:04;20.80;98.50
48416;DHT22;34227;51.840;4.146;2023-07-31T12:26:36;20.80;98.50
48416;DHT22;34227;51.840;4.146;2023-07-31T12:29:01;20.90;98.40
48416;DHT22;34227;51.840;4.146;2023-07-31T12:31:27;20.90;98.30
48416;DHT22;34227;51.840;4.146;2023-07-31T12:33:57;20.90;98.20
48416;DHT22;34227;51.840;4.146;2023-07-31T12:36:23;20.90;98.10
48416;DHT22;34227;51.840;4.146;2023-07-31T12:38:49;20.90;98.10
48416;DHT22;34227;51.840;4.146;2023-07-31T12:41:15;20.90;98.10
48416;DHT22;34227;51.840;4.146;2023-07-31T12:43:41;20.90;98.10
48416;DHT22;34227;51.840;4.146;2023-07-31T12:46:07;20.90;98.20
48416;DHT22;34227;51.840;4.146;2023-07-31T12:48:33;21.00;98.30
48416;DHT22;34227;51.840;4.146;2023-07-31T12:50:59;21.00;98.20
48416;DHT22;34227;51.840;4.146;2023-07-31T12:53:24;21.00;98.10
48416;DHT22;34227;51.840;4.146;2023-07-31T12:55:50;21.00;98.10
48416;DHT22;34227;51.840;4.146;2023-07-31T12:58:16;21.10;98.40
48416;DHT22;34227;51.840;4.146;2023-07-31T13:00:41;21.10;98.40
48416;DHT22;34227;51.840;4.146;2023-07-31T13:03:07;21.20;98.50
48416;DHT22;34227;51.840;4.146;2023-07-31T13:05:36;21.20;98.30
48416;DHT22;34227;51.840;4.146;2023-07-31T13:08:02;21.30;98.20
48416;DHT22;34227;51.840;4.146;2023-07-31T13:10:27;21.30;98.00
48416;DHT22;34227;51.840;4.146;2023-07-31T13:12:54;21.40;98.00
48416;DHT22;34227;51.840;4.146;2023-07-31T13:15:19;21.40;98.00
48416;DHT22;34227;51.840;4.146;2023-07-31T13:17:45;21.40;97.80
48416;DHT22;34227;51.840;4.146;2023-07-31T13:20:13;21.40;97.90
48416;DHT22;34227;51.840;4.146;2023-07-31T13:22:39;21.40;97.80
48416;DHT22;34227;51.840;4.146;2023-07-31T13:25:05;21.40;97.70
48416;DHT22;34227;51.840;4.146;2023-07-31T13:27:30;21.40;97.70
48416;DHT22;34227;51.840;4.146;2023-07-31T13:29:59;21.40;97.70
48416;DHT22;34227;51.840;4.146;2023-07-31T13:32:30;21.40;97.90
48416;DHT22;34227;51.840;4.146;2023-07-31T13:34:58;21.30;97.80
48416;DHT22;34227;51.840;4.146;2023-07-31T13:37:24;21.30;97.70
48416;DHT22;34227;51.840;4.146;2023-07-31T13:39:50;21.30;97.70
48416;DHT22;34227;51.840;4.146;2023-07-31T13:42:15;21.30;97.70
48416;DHT22;34227;51.840;4.146;2023-07-31T13:44:41;21.20;97.50
48416;DHT22;34227;51.840;4.146;2023-07-31T13:47:07;21.20;97.60
48416;DHT22;34227;51.840;4.146;2023-07-31T13:49:33;21.20;97.50
48416;DHT22;34227;51.840;4.146;2023-07-31T13:51:59;21.20;97.50
48416;DHT22;34227;51.840;4.146;2023-07-31T13:54:25;21.20;98.00
48416;DHT22;34227;51.840;4.146;2023-07-31T13:56:56;21.20;97.90
48416;DHT22;34227;51.840;4.146;2023-07-31T13:59:21;21.20;97.90
48416;DHT22;34227;51.840;4.146;2023-07-31T14:01:47;21.20;97.70
48416;DHT22;34227;51.840;4.146;2023-07-31T14:04:13;21.20;97.80
48416;DHT22;34227;51.840;4.146;2023-07-31T14:06:38;21.20;97.70
48416;DHT22;34227;51.840;4.146;2023-07-31T14:09:04;21.20;97.60
48416;DHT22;34227;51.840;4.146;2023-07-31T14:11:33;21.20;97.50
48416;DHT22;34227;51.840;4.146;2023-07-31T14:13:59;21.20;97.60
48416;DHT22;34227;51.840;4.146;2023-07-31T14:16:26;21.20;97.60
48416;DHT22;34227;51.840;4.146;2023-07-31T14:18:52;21.20;97.90
48416;DHT22;34227;51.840;4.146;2023-07-31T14:21:19;21.10;97.50
48416;DHT22;34227;51.840;4.146;2023-07-31T14:23:44;21.10;97.50
48416;DHT22;34227;51.840;4.146;2023-07-31T14:26:10;21.10;97.50
48416;DHT22;34227;51.840;4.146;2023-07-31T14:28:36;21.10;97.10
48416;DHT22;34227;51.840;4.146;2023-07-31T14:31:01;21.10;97.60
48416;DHT22;34227;51.840;4.146;2023-07-31T14:33:27;21.00;97.50
48416;DHT22;34227;51.840;4.146;2023-07-31T14:35:52;21.00;97.40
48416;DHT22;34227;51.840;4.146;2023-07-31T14:38:18;21.00;97.40
48416;DHT22;34227;51.840;4.146;2023-07-31T14:40:43;21.00;97.60
48416;DHT22;34227;51.840;4.146;2023-07-31T14:43:09;21.00;97.70
48416;DHT22;34227;51.840;4.146;2023-07-31T14:45:34;21.00;97.50
48416;DHT22;34227;51.840;4.146;2023-07-31T14:48:00;20.90;97.50
48416;DHT22;34227;51.840;4.146;2023-07-31T14:50:28;20.90;97.60
48416;DHT22;34227;51.840;4.146;2023-07-31T14:52:53;20.90;97.60
48416;DHT22;34227;51.840;4.146;2023-07-31T14:55:22;20.90;97.60
48416;DHT22;34227;51.840;4.146;2023-07-31T14:57:47;20.80;97.60
48416;DHT22;34227;51.840;4.146;2023-07-31T15:00:13;20.80;97.50
48416;DHT22;34227;51.840;4.146;2023-07-31T15:02:42;20.80;97.70
48416;DHT22;34227;51.840;4.146;2023-07-31T15:05:08;20.80;97.90
48416;DHT22;34227;51.840;4.146;2023-07-31T15:07:33;20.80;97.70
48416;DHT22;34227;51.840;4.146;2023-07-31T15:09:59;20.70;98.00
48416;DHT22;34227;51.840;4.146;2023-07-31T15:12:25;20.70;97.90
48416;DHT22;34227;51.840;4.146;2023-07-31T15:14:51;20.70;97.80
48416;DHT22;34227;51.840;4.146;2023-07-31T15:17:17;20.70;97.80
48416;DHT22;34227;51.840;4.146;2023-07-31T15:19:42;20.70;98.00
48416;DHT22;34227;51.840;4.146;2023-07-31T15:22:08;20.70;98.10
48416;DHT22;34227;51.840;4.146;2023-07-31T15:24:34;20.60;97.90
48416;DHT22;34227;51.840;4.146;2023-07-31T15:27:02;20.60;97.90
48416;DHT22;34227;51.840;4.146;2023-07-31T15:29:30;20.60;97.80
48416;DHT22;34227;51.840;4.146;2023-07-31T15:31:56;20.60;98.00
48416;DHT22;34227;51.840;4.146;2023-07-31T15:34:21;20.60;97.80
48416;DHT22;34227;51.840;4.146;2023-07-31T15:36:47;20.50;97.80
48416;DHT22;34227;51.840;4.146;2023-07-31T15:39:12;20.50;97.80